createdAt,value
2017-08-16T00:00:48.295Z,10.20
2017-08-16T00:03:18.307Z,9.60
2017-08-16T00:05:47.718Z,10.20
2017-08-16T00:08:17.150Z,9.83
2017-08-16T00:10:47.306Z,10.87
2017-08-16T00:13:16.736Z,10.00
2017-08-16T00:15:46.156Z,10.20
2017-08-16T00:18:15.564Z,9.70
2017-08-16T00:20:44.768Z,10.20
2017-08-16T00:23:14.165Z,10.37
2017-08-16T00:25:43.386Z,9.27
2017-08-16T00:28:13.562Z,10.17
2017-08-16T00:30:42.981Z,10.10
2017-08-16T00:33:12.372Z,9.80
2017-08-16T00:35:41.791Z,10.10
2017-08-16T00:38:11.188Z,9.80
2017-08-16T00:40:41.361Z,10.07
2017-08-16T00:43:10.781Z,9.70
2017-08-16T00:45:40.970Z,10.33
2017-08-16T00:48:09.709Z,8.77
2017-08-16T00:50:39.453Z,9.70
2017-08-16T00:53:08.887Z,10.43
2017-08-16T00:55:38.292Z,9.30
2017-08-16T00:58:07.678Z,8.60
2017-08-16T01:00:36.408Z,9.03
2017-08-16T01:03:04.918Z,8.70
2017-08-16T01:05:34.326Z,9.47
2017-08-16T01:08:03.728Z,8.63
2017-08-16T01:10:33.353Z,9.57
2017-08-16T01:13:02.767Z,9.80
2017-08-16T01:15:31.967Z,9.53
2017-08-16T01:18:01.362Z,9.50
2017-08-16T01:20:30.786Z,9.30
2017-08-16T01:23:00.187Z,9.47
2017-08-16T01:25:29.590Z,9.60
2017-08-16T01:27:59.003Z,8.60
2017-08-16T01:30:28.987Z,8.80
2017-08-16T01:32:58.993Z,8.67
2017-08-16T01:35:28.368Z,7.90
2017-08-16T01:37:57.787Z,8.73
2017-08-16T01:40:26.990Z,8.40
2017-08-16T01:42:56.388Z,8.20
2017-08-16T01:45:25.797Z,8.27
2017-08-16T01:47:55.199Z,7.40
2017-08-16T01:50:24.586Z,8.33
2017-08-16T01:52:54.028Z,7.97
2017-08-16T01:55:23.423Z,8.00
2017-08-16T01:57:52.842Z,7.73
2017-08-16T02:00:22.229Z,8.43
2017-08-16T02:02:51.453Z,8.40
2017-08-16T02:05:20.879Z,7.20
2017-08-16T02:07:50.294Z,7.90
2017-08-16T02:10:19.720Z,8.20
2017-08-16T02:12:49.144Z,8.13
2017-08-16T02:15:18.522Z,7.70
2017-08-16T02:17:47.924Z,8.07
2017-08-16T02:20:17.325Z,8.30
2017-08-16T02:22:46.738Z,8.20
2017-08-16T02:25:16.154Z,7.13
2017-08-16T02:27:45.570Z,7.47
2017-08-16T02:30:14.977Z,7.83
2017-08-16T02:32:45.177Z,7.30
2017-08-16T02:35:14.366Z,7.37
2017-08-16T02:37:43.781Z,7.73
2017-08-16T02:40:13.181Z,7.53
2017-08-16T02:42:42.606Z,7.80
2017-08-16T02:45:12.010Z,6.90
2017-08-16T02:47:41.405Z,8.20
2017-08-16T02:50:10.838Z,7.97
2017-08-16T02:52:40.297Z,8.17
2017-08-16T02:55:08.839Z,7.43
2017-08-16T02:57:37.548Z,7.40
2017-08-16T03:00:06.275Z,6.93
2017-08-16T03:02:34.795Z,7.20
2017-08-16T03:05:03.336Z,8.23
2017-08-16T03:07:31.835Z,7.67
2017-08-16T03:10:00.344Z,7.10
2017-08-16T03:12:29.196Z,7.27
2017-08-16T03:14:57.704Z,7.27
2017-08-16T03:17:26.867Z,6.53
2017-08-16T03:19:55.369Z,6.40
2017-08-16T03:22:23.869Z,7.20
2017-08-16T03:24:52.589Z,7.20
2017-08-16T03:27:21.293Z,7.50
2017-08-16T03:29:49.813Z,6.60
2017-08-16T03:32:18.862Z,6.83
2017-08-16T03:34:47.713Z,7.70
2017-08-16T03:37:16.437Z,7.67
2017-08-16T03:39:45.484Z,8.20
2017-08-16T03:42:14.017Z,7.33
2017-08-16T03:44:42.522Z,7.30
2017-08-16T03:47:11.807Z,7.00
2017-08-16T03:49:40.515Z,6.80
2017-08-16T03:52:09.783Z,6.97
2017-08-16T03:54:39.074Z,6.93
2017-08-16T03:57:07.966Z,6.20
2017-08-16T03:59:36.468Z,6.37
2017-08-16T04:02:04.980Z,6.30
2017-08-16T04:04:34.258Z,7.23
2017-08-16T04:07:03.538Z,8.10
2017-08-16T04:09:32.046Z,6.27
2017-08-16T04:12:01.329Z,6.00
2017-08-16T04:14:29.837Z,6.27
2017-08-16T04:16:58.566Z,5.90
2017-08-16T04:19:27.261Z,6.67
2017-08-16T04:21:55.794Z,6.80
2017-08-16T04:24:25.944Z,6.30
2017-08-16T04:26:54.659Z,6.50
2017-08-16T04:29:23.170Z,6.00
2017-08-16T04:31:53.346Z,6.43
2017-08-16T04:34:21.850Z,6.43
2017-08-16T04:36:50.756Z,14.37
2017-08-16T04:39:19.257Z,6.10
2017-08-16T04:41:47.799Z,6.20
2017-08-16T04:44:16.648Z,5.47
2017-08-16T04:46:45.367Z,5.50
2017-08-16T04:49:14.067Z,5.60
2017-08-16T04:51:42.574Z,5.70
2017-08-16T04:54:11.077Z,7.60
2017-08-16T04:56:39.927Z,6.30
2017-08-16T04:59:09.216Z,5.00
2017-08-16T05:01:38.488Z,6.53
2017-08-16T05:04:07.547Z,6.23
2017-08-16T05:06:36.382Z,5.53
2017-08-16T05:09:05.399Z,5.57
2017-08-16T05:11:33.905Z,5.80
2017-08-16T05:14:02.418Z,5.10
2017-08-16T05:16:30.926Z,6.00
2017-08-16T05:18:59.440Z,5.50
2017-08-16T05:21:27.957Z,5.20
2017-08-16T05:23:56.459Z,5.20
2017-08-16T05:26:24.970Z,6.00
2017-08-16T05:28:54.244Z,5.80
2017-08-16T05:31:22.949Z,5.80
2017-08-16T05:33:51.660Z,7.00
2017-08-16T05:36:25.757Z,6.03
2017-08-16T05:38:54.271Z,6.00
2017-08-16T05:41:23.477Z,5.70
2017-08-16T05:43:52.177Z,6.73
2017-08-16T05:46:20.909Z,7.20
2017-08-16T05:48:50.862Z,6.20
2017-08-16T05:51:21.044Z,5.97
2017-08-16T05:53:50.441Z,5.90
2017-08-16T05:56:19.868Z,5.80
2017-08-16T05:58:50.025Z,6.70
2017-08-16T06:01:19.459Z,6.40
2017-08-16T06:03:48.847Z,7.13
2017-08-16T06:06:18.246Z,6.90
2017-08-16T06:08:47.646Z,5.70
2017-08-16T06:11:17.049Z,6.17
2017-08-16T06:13:46.445Z,5.83
2017-08-16T06:16:15.908Z,7.17
2017-08-16T06:18:46.078Z,6.43
2017-08-16T06:21:15.486Z,6.43
2017-08-16T06:23:44.896Z,6.67
2017-08-16T06:26:14.334Z,7.00
2017-08-16T06:28:44.500Z,6.60
2017-08-16T06:31:13.907Z,7.37
2017-08-16T06:33:43.312Z,7.57
2017-08-16T06:36:12.699Z,7.50
2017-08-16T06:38:42.097Z,8.03
2017-08-16T06:41:11.502Z,8.17
2017-08-16T06:43:40.921Z,7.87
2017-08-16T06:46:10.314Z,7.70
2017-08-16T06:48:39.708Z,8.37
2017-08-16T06:51:09.116Z,9.33
2017-08-16T06:53:38.519Z,8.80
2017-08-16T06:56:07.913Z,11.00
2017-08-16T06:58:38.122Z,9.00
2017-08-16T07:01:07.510Z,9.03
2017-08-16T07:03:36.926Z,8.70
2017-08-16T07:06:06.368Z,10.57
2017-08-16T07:08:35.802Z,10.23
2017-08-16T07:11:05.274Z,9.57
2017-08-16T07:13:34.692Z,9.47
2017-08-16T07:16:05.316Z,10.03
2017-08-16T07:18:34.744Z,10.40
2017-08-16T07:21:04.163Z,11.40
2017-08-16T07:23:33.586Z,10.13
2017-08-16T07:26:03.754Z,10.63
2017-08-16T07:28:33.169Z,11.07
2017-08-16T07:31:03.337Z,9.50
2017-08-16T07:33:33.514Z,9.70
2017-08-16T07:36:02.914Z,10.63
2017-08-16T07:38:34.004Z,12.67
2017-08-16T07:41:03.871Z,12.13
2017-08-16T07:43:33.400Z,12.10
2017-08-16T07:46:03.060Z,12.17
2017-08-16T07:48:33.709Z,13.50
2017-08-16T07:51:03.153Z,13.70
2017-08-16T07:53:32.859Z,15.13
2017-08-16T07:56:02.475Z,15.30
2017-08-16T07:58:33.651Z,17.03
2017-08-16T08:01:03.420Z,18.47
2017-08-16T08:03:33.976Z,18.17
2017-08-16T08:06:04.470Z,16.70
2017-08-16T08:08:34.141Z,18.20
2017-08-16T08:11:03.780Z,22.10
2017-08-16T08:13:33.521Z,20.10
2017-08-16T08:16:02.916Z,23.40
2017-08-16T08:18:32.401Z,22.60
2017-08-16T08:21:01.972Z,14.83
2017-08-16T08:23:31.458Z,18.20
2017-08-16T08:26:01.647Z,19.10
2017-08-16T08:28:31.049Z,19.80
2017-08-16T08:31:00.944Z,14.17
2017-08-16T08:33:32.301Z,14.00
2017-08-16T08:36:02.208Z,17.10
2017-08-16T08:38:32.305Z,18.80
2017-08-16T08:41:02.068Z,21.37
2017-08-16T08:43:32.474Z,16.03
2017-08-16T08:46:03.401Z,14.50
2017-08-16T08:48:33.704Z,16.93
2017-08-16T08:51:03.473Z,19.03
2017-08-16T08:53:37.420Z,16.60
2017-08-16T08:56:11.335Z,14.47
2017-08-16T08:58:41.429Z,15.80
2017-08-16T09:01:12.173Z,19.70
2017-08-16T09:03:41.765Z,19.27
2017-08-16T09:06:11.546Z,20.20
2017-08-16T09:08:41.009Z,17.90
2017-08-16T09:11:11.546Z,15.03
2017-08-16T09:13:42.424Z,16.60
2017-08-16T09:16:11.920Z,17.90
2017-08-16T09:18:42.650Z,16.40
2017-08-16T09:21:16.594Z,17.80
2017-08-16T09:23:47.102Z,16.00
2017-08-16T09:26:16.514Z,17.93
2017-08-16T09:28:46.702Z,18.37
2017-08-16T09:31:16.140Z,15.77
2017-08-16T09:33:45.570Z,17.90
2017-08-16T09:36:14.994Z,16.17
2017-08-16T09:38:44.403Z,16.80
2017-08-16T09:41:13.821Z,20.80
2017-08-16T09:43:43.280Z,17.17
2017-08-16T09:46:12.682Z,16.40
2017-08-16T09:48:42.871Z,16.93
2017-08-16T09:51:12.274Z,15.80
2017-08-16T09:53:41.702Z,13.27
2017-08-16T09:56:11.869Z,14.27
2017-08-16T09:58:41.286Z,15.03
2017-08-16T10:01:10.728Z,13.00
2017-08-16T10:03:40.918Z,17.40
2017-08-16T10:06:10.352Z,14.33
2017-08-16T10:08:39.785Z,8.90
2017-08-16T10:11:09.170Z,8.20
2017-08-16T10:13:38.585Z,7.63
2017-08-16T10:16:08.744Z,7.93
2017-08-16T10:18:38.178Z,14.40
2017-08-16T10:21:07.606Z,10.50
2017-08-16T10:23:37.036Z,8.93
2017-08-16T10:26:06.430Z,9.40
2017-08-16T10:28:35.854Z,11.30
2017-08-16T10:31:06.034Z,15.90
2017-08-16T10:33:36.222Z,19.03
2017-08-16T10:36:05.657Z,63.07
2017-08-16T10:38:35.851Z,12.90
2017-08-16T10:41:05.249Z,9.80
2017-08-16T10:43:34.679Z,10.70
2017-08-16T10:46:04.092Z,11.30
2017-08-16T10:48:34.282Z,24.60
2017-08-16T10:51:03.693Z,11.13
2017-08-16T10:53:33.086Z,13.03
2017-08-16T10:56:03.265Z,14.80
2017-08-16T10:58:32.666Z,16.70
2017-08-16T11:01:02.070Z,8.90
2017-08-16T11:03:31.349Z,14.37
2017-08-16T11:06:00.963Z,14.00
2017-08-16T11:08:30.362Z,16.90
2017-08-16T11:10:59.795Z,18.43
2017-08-16T11:13:29.190Z,20.80
2017-08-16T11:15:58.620Z,22.37
2017-08-16T11:18:28.036Z,22.90
2017-08-16T11:20:57.455Z,20.87
2017-08-16T11:23:27.692Z,24.23
2017-08-16T11:25:58.021Z,20.97
2017-08-16T11:28:27.418Z,21.37
2017-08-16T11:30:56.845Z,20.67
2017-08-16T11:33:26.484Z,24.10
2017-08-16T11:35:55.903Z,24.03
2017-08-16T11:38:25.305Z,22.50
2017-08-16T11:40:54.748Z,21.73
2017-08-16T11:43:24.148Z,17.43
2017-08-16T11:45:54.339Z,16.07
2017-08-16T11:48:24.508Z,19.53
2017-08-16T11:50:53.949Z,15.67
2017-08-16T11:53:24.155Z,13.30
2017-08-16T11:55:53.552Z,13.67
2017-08-16T11:58:22.980Z,15.10
2017-08-16T12:00:52.398Z,15.20
2017-08-16T12:03:21.822Z,15.00
2017-08-16T12:05:51.257Z,17.20
2017-08-16T12:08:20.662Z,16.87
2017-08-16T12:10:50.100Z,14.93
2017-08-16T12:13:19.503Z,13.67
2017-08-16T12:15:49.702Z,16.37
2017-08-16T12:18:19.127Z,19.00
2017-08-16T12:20:49.293Z,18.57
2017-08-16T12:23:18.695Z,14.40
2017-08-16T12:25:48.173Z,17.57
2017-08-16T12:28:17.587Z,18.63
2017-08-16T12:30:47.014Z,17.03
2017-08-16T12:33:16.440Z,32.83
2017-08-16T12:35:45.836Z,26.73
2017-08-16T12:38:15.245Z,22.63
2017-08-16T12:40:44.671Z,23.77
2017-08-16T12:43:14.107Z,20.37
2017-08-16T12:45:44.621Z,14.47
2017-08-16T12:48:14.414Z,13.87
2017-08-16T12:50:43.843Z,11.93
2017-08-16T12:53:14.572Z,11.80
2017-08-16T12:55:44.009Z,12.13
2017-08-16T12:58:13.451Z,16.40
2017-08-16T13:00:42.877Z,12.93
2017-08-16T13:03:12.342Z,16.60
2017-08-16T13:05:41.745Z,13.73
2017-08-16T13:08:12.559Z,9.80
2017-08-16T13:10:41.958Z,10.93
2017-08-16T13:13:11.396Z,9.27
2017-08-16T13:15:40.809Z,8.80
2017-08-16T13:18:10.585Z,9.80
2017-08-16T13:20:40.044Z,9.00
2017-08-16T13:23:09.450Z,9.60
2017-08-16T13:25:38.844Z,10.33
2017-08-16T13:28:08.290Z,11.00
2017-08-16T13:30:37.697Z,11.10
2017-08-16T13:33:07.106Z,10.13
2017-08-16T13:35:36.522Z,12.10
2017-08-16T13:38:06.700Z,11.47
2017-08-16T13:40:36.118Z,12.60
2017-08-16T13:43:05.333Z,11.63
2017-08-16T13:45:34.758Z,12.13
2017-08-16T13:48:04.926Z,15.57
2017-08-16T13:50:34.361Z,14.00
2017-08-16T13:53:03.783Z,11.30
2017-08-16T13:55:33.974Z,18.33
2017-08-16T13:58:03.362Z,12.33
2017-08-16T14:00:32.778Z,12.40
2017-08-16T14:03:02.195Z,11.97
2017-08-16T14:05:31.611Z,13.90
2017-08-16T14:08:01.011Z,11.53
2017-08-16T14:10:30.413Z,13.07
2017-08-16T14:13:00.581Z,12.13
2017-08-16T14:15:30.009Z,12.17
2017-08-16T14:17:59.414Z,12.70
2017-08-16T14:20:28.835Z,18.73
2017-08-16T14:22:58.248Z,11.67
2017-08-16T14:25:27.717Z,11.13
2017-08-16T14:27:57.888Z,8.73
2017-08-16T14:30:27.293Z,9.30
2017-08-16T14:32:56.812Z,11.90
2017-08-16T14:35:26.269Z,9.37
2017-08-16T14:37:56.766Z,9.93
2017-08-16T14:40:26.178Z,11.07
2017-08-16T14:42:55.585Z,16.50
2017-08-16T14:45:25.001Z,12.13
2017-08-16T14:47:54.210Z,12.33
2017-08-16T14:50:23.619Z,13.17
2017-08-16T14:52:53.164Z,12.53
2017-08-16T14:55:23.401Z,12.17
2017-08-16T14:57:52.790Z,13.77
2017-08-16T15:00:22.248Z,13.70
2017-08-16T15:02:51.475Z,17.77
2017-08-16T15:05:21.659Z,13.97
2017-08-16T15:07:51.851Z,15.80
2017-08-16T15:10:21.260Z,15.70
2017-08-16T15:12:50.973Z,31.20
2017-08-16T15:15:20.217Z,16.40
2017-08-16T15:17:50.218Z,18.73
2017-08-16T15:20:20.386Z,12.87
2017-08-16T15:22:49.806Z,12.40
2017-08-16T15:25:19.208Z,17.60
2017-08-16T15:27:49.420Z,82.47
2017-08-16T15:30:18.848Z,16.60
2017-08-16T15:32:48.278Z,7.83
2017-08-16T15:35:17.814Z,11.50
2017-08-16T15:37:47.220Z,9.17
2017-08-16T15:40:16.625Z,10.80
2017-08-16T15:42:46.035Z,8.60
2017-08-16T15:45:15.239Z,10.33
2017-08-16T15:47:44.660Z,10.20
2017-08-16T15:50:14.064Z,12.97
2017-08-16T15:52:43.465Z,10.73
2017-08-16T15:55:12.892Z,10.90
2017-08-16T15:57:42.374Z,10.77
2017-08-16T16:00:11.771Z,9.77
2017-08-16T16:02:40.968Z,11.10
2017-08-16T16:05:10.579Z,12.53
2017-08-16T16:07:39.983Z,11.80
2017-08-16T16:10:09.559Z,12.63
2017-08-16T16:12:39.738Z,11.53
2017-08-16T16:15:09.193Z,10.50
2017-08-16T16:17:38.587Z,66.60
2017-08-16T16:20:08.028Z,12.40
2017-08-16T16:22:37.275Z,18.40
2017-08-16T16:25:07.514Z,10.60
2017-08-16T16:27:36.950Z,10.10
2017-08-16T16:30:06.436Z,12.00
2017-08-16T16:32:36.598Z,11.80
2017-08-16T16:35:06.012Z,11.90
2017-08-16T16:37:35.415Z,12.80
2017-08-16T16:40:05.606Z,12.67
2017-08-16T16:42:35.037Z,11.40
2017-08-16T16:45:04.106Z,20.53
2017-08-16T16:47:33.712Z,11.60
2017-08-16T16:50:03.888Z,10.93
2017-08-16T16:52:33.298Z,14.30
2017-08-16T16:55:02.717Z,13.40
2017-08-16T16:57:32.122Z,27.00
2017-08-16T17:00:01.584Z,23.83
2017-08-16T17:02:30.778Z,12.10
2017-08-16T17:05:00.207Z,16.10
2017-08-16T17:07:30.372Z,12.53
2017-08-16T17:09:59.965Z,14.50
2017-08-16T17:12:31.784Z,13.70
2017-08-16T17:15:01.236Z,16.10
2017-08-16T17:17:31.409Z,11.40
2017-08-16T17:20:00.883Z,12.90
2017-08-16T17:22:30.093Z,30.03
2017-08-16T17:24:59.527Z,22.90
2017-08-16T17:27:28.929Z,45.77
2017-08-16T17:29:58.377Z,18.83
2017-08-16T17:32:27.642Z,17.63
2017-08-16T17:34:57.047Z,12.00
2017-08-16T17:37:26.486Z,19.43
2017-08-16T17:39:56.649Z,17.60
2017-08-16T17:42:26.077Z,28.83
2017-08-16T17:44:55.481Z,17.40
2017-08-16T17:47:24.922Z,22.80
2017-08-16T17:49:54.350Z,16.17
2017-08-16T17:52:24.600Z,15.73
2017-08-16T17:54:54.133Z,12.03
2017-08-16T17:57:23.588Z,15.57
2017-08-16T17:59:52.990Z,16.20
2017-08-16T18:02:22.413Z,13.50
2017-08-16T18:04:51.818Z,28.40
2017-08-16T18:07:21.252Z,31.27
2017-08-16T18:09:50.664Z,43.57
2017-08-16T18:12:20.864Z,47.83
2017-08-16T18:14:51.036Z,27.47
2017-08-16T18:17:20.460Z,33.20
2017-08-16T18:19:49.850Z,26.80
2017-08-16T18:22:21.213Z,23.33
2017-08-16T18:24:50.673Z,19.87
2017-08-16T18:27:20.112Z,15.67
2017-08-16T18:29:50.284Z,23.37
2017-08-16T18:32:19.884Z,20.37
2017-08-16T18:34:49.270Z,15.60
2017-08-16T18:37:18.723Z,17.70
2017-08-16T18:39:48.110Z,16.93
2017-08-16T18:42:17.530Z,16.30
2017-08-16T18:44:46.967Z,27.53
2017-08-16T18:47:16.395Z,23.47
2017-08-16T18:49:45.791Z,17.00
2017-08-16T18:52:15.200Z,19.67
2017-08-16T18:54:44.599Z,31.80
2017-08-16T18:57:14.029Z,54.53
2017-08-16T18:59:43.438Z,31.00
2017-08-16T19:02:12.857Z,52.10
2017-08-16T19:04:42.270Z,21.30
2017-08-16T19:07:12.368Z,31.43
2017-08-16T19:09:41.732Z,26.27
2017-08-16T19:12:11.158Z,25.47
2017-08-16T19:14:40.180Z,24.70
2017-08-16T19:17:09.600Z,22.00
2017-08-16T19:19:39.005Z,19.10
2017-08-16T19:22:08.430Z,17.90
2017-08-16T19:24:38.588Z,21.13
2017-08-16T19:27:08.015Z,18.70
2017-08-16T19:29:37.456Z,18.70
2017-08-16T19:32:07.651Z,18.80
2017-08-16T19:34:37.075Z,20.07
2017-08-16T19:37:06.478Z,18.73
2017-08-16T19:39:36.648Z,18.67
2017-08-16T19:42:06.056Z,18.90
2017-08-16T19:44:35.480Z,19.57
2017-08-16T19:47:04.898Z,19.20
2017-08-16T19:49:34.302Z,19.03
2017-08-16T19:52:03.710Z,18.60
2017-08-16T19:54:33.168Z,19.00
2017-08-16T19:57:02.563Z,23.87
2017-08-16T19:59:31.998Z,20.33
2017-08-16T20:02:01.386Z,20.70
2017-08-16T20:04:30.841Z,22.20
2017-08-16T20:07:01.208Z,30.70
2017-08-16T20:09:30.641Z,24.77
2017-08-16T20:12:00.065Z,67.03
2017-08-16T20:14:29.499Z,24.70
2017-08-16T20:16:58.892Z,23.70
2017-08-16T20:19:28.285Z,22.77
2017-08-16T20:21:58.464Z,21.53
2017-08-16T20:24:27.855Z,23.97
2017-08-16T20:26:57.090Z,25.20
2017-08-16T20:29:26.477Z,32.80
2017-08-16T20:31:55.892Z,26.20
2017-08-16T20:34:25.288Z,25.47
2017-08-16T20:36:54.691Z,24.83
2017-08-16T20:39:24.131Z,25.10
2017-08-16T20:41:54.307Z,24.70
2017-08-16T20:44:23.726Z,24.90
2017-08-16T20:46:53.140Z,24.43
2017-08-16T20:49:23.309Z,23.33
2017-08-16T20:51:52.531Z,23.83
2017-08-16T20:54:21.949Z,27.07
2017-08-16T20:56:51.356Z,24.63
2017-08-16T20:59:20.799Z,25.60
2017-08-16T21:01:50.244Z,25.37
2017-08-16T21:04:19.656Z,26.07
2017-08-16T21:06:49.085Z,25.90
2017-08-16T21:09:18.492Z,26.90
2017-08-16T21:11:47.903Z,25.87
2017-08-16T21:14:17.301Z,27.80
2017-08-16T21:16:46.728Z,28.90
2017-08-16T21:19:16.125Z,31.50
2017-08-16T21:21:45.550Z,28.10
2017-08-16T21:24:14.954Z,28.03
2017-08-16T21:26:44.373Z,28.40
2017-08-16T21:29:13.817Z,27.53
2017-08-16T21:31:43.243Z,26.77
2017-08-16T21:34:12.641Z,27.93
2017-08-16T21:36:42.083Z,28.23
2017-08-16T21:39:11.539Z,27.37
2017-08-16T21:41:40.975Z,29.80
2017-08-16T21:44:10.403Z,31.63
2017-08-16T21:46:39.810Z,29.53
2017-08-16T21:49:09.966Z,30.73
2017-08-16T21:51:40.149Z,31.67
2017-08-16T21:54:09.558Z,29.73
2017-08-16T21:56:38.974Z,29.60
2017-08-16T21:59:08.399Z,30.10
2017-08-16T22:01:38.581Z,34.33
2017-08-16T22:04:07.811Z,30.60
2017-08-16T22:06:38.037Z,32.50
2017-08-16T22:09:07.267Z,31.50
2017-08-16T22:11:36.650Z,30.47
2017-08-16T22:14:06.082Z,30.70
2017-08-16T22:16:35.493Z,30.00
2017-08-16T22:19:04.954Z,30.30
2017-08-16T22:21:34.363Z,32.13
2017-08-16T22:24:03.827Z,30.77
2017-08-16T22:26:33.508Z,31.37
2017-08-16T22:29:02.970Z,32.00
2017-08-16T22:31:32.410Z,30.67
2017-08-16T22:34:01.878Z,30.47
2017-08-16T22:36:30.952Z,32.67
2017-08-16T22:39:00.376Z,30.83
2017-08-16T22:41:29.776Z,31.50
2017-08-16T22:43:59.201Z,31.47
2017-08-16T22:46:28.635Z,30.30
2017-08-16T22:48:57.853Z,31.97
2017-08-16T22:51:27.477Z,32.07
2017-08-16T22:53:56.701Z,31.60
2017-08-16T22:56:26.127Z,32.50
2017-08-16T22:58:55.526Z,30.37
2017-08-16T23:01:24.940Z,31.00
2017-08-16T23:03:54.351Z,29.80
2017-08-16T23:06:23.759Z,32.93
2017-08-16T23:08:53.169Z,32.13
2017-08-16T23:11:22.602Z,30.90
2017-08-16T23:13:52.766Z,29.90
2017-08-16T23:16:22.201Z,34.00
2017-08-16T23:18:51.608Z,31.80
2017-08-16T23:21:21.025Z,32.97
2017-08-16T23:23:51.243Z,35.67
2017-08-16T23:26:21.442Z,33.33
2017-08-16T23:28:50.833Z,31.57
2017-08-16T23:31:20.294Z,32.60
2017-08-16T23:33:49.695Z,32.43
2017-08-16T23:36:19.124Z,34.23
2017-08-16T23:38:48.517Z,32.77
2017-08-16T23:41:18.697Z,32.00
2017-08-16T23:43:48.111Z,32.87
2017-08-16T23:46:17.452Z,33.37
2017-08-16T23:48:47.634Z,32.73
2017-08-16T23:51:17.113Z,32.30
2017-08-16T23:53:46.526Z,34.67
2017-08-16T23:56:15.934Z,32.47
2017-08-16T23:58:45.330Z,35.13
